Historical Weather Data

Soule Park Golf Course
1033 East Ojai Ave
Ojai, CA 93023
Date ET
(Inches)
Rain
(Inches)
Temp °F
Humidity
Avg
Wind MPH
Avg
Solar Wm2
Avg
High Ave Low
10/1/18 0.17 0.00 91.5 74.7 58.9 52 2.0 215
10/2/18 0.11 0.00 83.6 70.3 63.3 58 1.9 126
10/3/18 0.04 0.00 71.6 65.9 59.6 73 1.2 48
10/4/18 0.12 0.00 76.9 65.0 58.2 78 2.5 192
10/5/18 0.14 0.00 82.7 66.0 53.3 72 2.3 216
10/6/18 0.11 0.00 78.1 63.2 51.0 75 2.3 187
10/7/18 0.14 0.00 80.6 64.3 49.9 63 2.4 212
10/8/18 0.13 0.00 77.3 62.3 45.7 70 2.2 213
10/9/18 0.12 0.00 75.3 63.0 53.1 74 1.4 201
10/10/18 0.06 0.00 71.5 59.7 51.3 79 0.8 92
10/11/18 0.10 0.00 72.9 58.5 47.0 72 1.1 171
10/12/18 0.11 0.02 84.2 64.7 47.4 65 1.0 170
10/13/18 0.06 0.00 73.1 63.7 58.5 80 1.0 104
10/14/18 0.11 0.00 76.6 63.5 52.1 77 1.2 179
10/15/18 0.17 0.00 85.6 64.5 47.3 37 3.0 216
10/16/18 0.15 0.00 83.3 62.1 43.7 33 1.9 212
10/17/18 0.15 0.00 84.5 63.0 43.5 34 1.6 210
10/18/18 0.15 0.00 86.9 64.9 44.6 35 1.9 207
10/19/18 0.16 0.00 88.8 68.0 48.0 32 2.6 207
10/20/18 0.17 0.00 89.8 68.3 49.6 33 3.2 206
10/21/18 0.13 0.00 84.2 66.0 50.5 52 1.6 198
10/22/18 0.11 0.00 78.9 60.9 47.4 78 1.8 188
10/23/18 0.12 0.00 85.4 64.5 47.8 67 1.9 190
10/24/18 0.13 0.00 85.8 65.0 47.0 59 2.0 191
10/25/18 0.12 0.00 85.1 63.2 45.8 63 1.9 191
10/26/18 0.13 0.00 91.8 67.6 47.7 51 1.9 190
10/27/18 0.13 0.00 90.3 67.6 49.5 48 1.7 188
10/28/18 0.12 0.00 90.3 64.9 46.2 52 1.8 173
10/29/18 0.11 0.00 82.3 62.7 45.1 60 2.0 172
10/30/18 0.10 0.00 81.4 59.6 43.4 56 2.2 172
10/31/18 0.11 0.00 83.3 61.0 42.9 39 2.1 167